Accueil
METAR-TAF:

METAR-TAF

Aéroports :

Longview, Texas, États-Unis

latitude: 32-23-26N, longitude: 094-42-50W, altitude: 111 m

Observation

Le bulletin a été fait il y a 30 minutes, à 01:53 UTC
Vent 3 kt de sud/sud-est
Température 3°C
Humidité 93%
Pression 1028 hPa
Visibilité: 16.1 km
Ciel clair

METAR: KGGG 110153Z 16003KT 10SM CLR 03/02 A3037 RMK AO2 SLP291 T00330017

Heure: 20:23 (02:23 UTC)

Prévision

Le bulletin a été fait il y a 2 heures et 59 minutes, à 23:24 UTC
Prévision valable du 11 à 00 UTC au 11 à 24 UTC
Vent kt de nord
Visibilité: 10 km
Ciel clair
A partir de 11 à 1400 UTC
Vent 7 kt de sud
Visibilité: 10 km
Nuages épars à une hauteur de 25000 ft
A partir de 11 à 1700 UTC
Vent 12 kt de sud/sud-ouest
Visibilité: 10 km
Nuages fragmentés à une hauteur de 25000 ft

TAF: KGGG 102324Z 1100/1124 00000KT P6SM SKC FM111400 19007KT P6SM SCT250 FM111700 20012KT P6SM BKN250

Observations et prévisions météorologiques de plus de 4000 aéroports (messages METAR et TAF).

Les stations disponibles sont représentées par des disques jaunes et rouges sur la carte.

Passer la souris dessus pour voir le nom de la station.

Cliquer dessus pour voir les observations et prévisions météorologiques.

Pour changer de carte: cliquez sur les boutons verts avec une croix noire pour zoomer, sur le bouton vert avec un tiret pour effectuer un zoom arrière, ou sur les flèches vertes pour les cartes adjacentes.


METAR-TAF: